createdAt,value
2023-05-14T00:01:37.465Z,100997.56
2023-05-14T00:04:41.196Z,101002.19
2023-05-14T00:07:43.607Z,101002.31
2023-05-14T00:10:45.921Z,100994.38
2023-05-14T00:13:48.286Z,101000.81
2023-05-14T00:16:50.514Z,100998.09
2023-05-14T00:19:53.153Z,100995.88
2023-05-14T00:22:55.604Z,101000.84
2023-05-14T00:25:57.706Z,100994.81
2023-05-14T00:29:00.123Z,100996.38
2023-05-14T00:32:03.096Z,100992.22
2023-05-14T00:35:05.820Z,100988.78
2023-05-14T00:38:08.396Z,100987.38
2023-05-14T00:41:10.909Z,100989.97
2023-05-14T00:44:13.064Z,100992.56
2023-05-14T00:47:15.590Z,100992.69
2023-05-14T00:50:18.394Z,100996.94
2023-05-14T00:53:23.779Z,100985.13
2023-05-14T00:56:27.855Z,100993.03
2023-05-14T00:59:31.184Z,100995.84
2023-05-14T01:02:33.351Z,100996.09
2023-05-14T01:06:14.377Z,100999.03
2023-05-14T01:09:16.400Z,101003.00
2023-05-14T01:12:18.622Z,100997.94
2023-05-14T01:15:30.794Z,100998.06
2023-05-14T01:18:33.617Z,100991.44
2023-05-14T01:21:43.833Z,101005.69
2023-05-14T01:24:45.746Z,100997.91
2023-05-14T01:28:19.925Z,100996.38
2023-05-14T01:31:28.361Z,100997.53
2023-05-14T01:34:31.964Z,100986.44
2023-05-14T01:37:35.260Z,100988.22
2023-05-14T01:40:37.881Z,100988.22
2023-05-14T01:43:40.774Z,100992.69
2023-05-14T01:46:42.944Z,100992.81
2023-05-14T01:49:44.979Z,100987.00
2023-05-14T01:52:48.465Z,100990.31
2023-05-14T01:55:50.407Z,100984.84
2023-05-14T01:58:52.691Z,100984.47
2023-05-14T02:01:54.638Z,100977.94
2023-05-14T02:04:56.536Z,100982.78
2023-05-14T02:07:58.945Z,100973.47
2023-05-14T02:11:00.970Z,100973.56
2023-05-14T02:14:02.768Z,100978.00
2023-05-14T02:17:05.239Z,100974.38
2023-05-14T02:20:10.278Z,100977.78
2023-05-14T02:23:12.334Z,100970.88
2023-05-14T02:26:14.365Z,100965.69
2023-05-14T02:29:16.323Z,100962.16
2023-05-14T02:32:18.538Z,100957.78
2023-05-14T02:35:20.636Z,100960.50
2023-05-14T02:38:23.265Z,100961.44
2023-05-14T02:41:25.305Z,100961.56
2023-05-14T02:44:27.076Z,100966.94
2023-05-14T02:47:29.600Z,100973.28
2023-05-14T02:50:31.673Z,100962.44
2023-05-14T02:53:33.849Z,100966.50
2023-05-14T02:56:35.936Z,100968.91
2023-05-14T02:59:37.743Z,100961.56
2023-05-14T03:02:41.057Z,100964.47
2023-05-14T03:05:43.540Z,100967.38
2023-05-14T03:08:45.992Z,100965.84
2023-05-14T03:11:48.206Z,100966.06
2023-05-14T03:14:50.167Z,100967.59
2023-05-14T03:17:52.271Z,100960.88
2023-05-14T03:20:54.303Z,100959.94
2023-05-14T03:23:57.440Z,100958.28
2023-05-14T03:26:59.330Z,100961.78
2023-05-14T03:30:01.222Z,100960.06
2023-05-14T03:33:02.962Z,100962.75
2023-05-14T03:36:05.582Z,100966.06
2023-05-14T03:39:07.332Z,100964.28
2023-05-14T03:42:10.745Z,100959.94
2023-05-14T03:45:12.996Z,100964.88
2023-05-14T03:48:15.267Z,100959.94
2023-05-14T03:51:17.215Z,100960.88
2023-05-14T03:54:19.063Z,100966.28
2023-05-14T03:57:21.416Z,100957.56
2023-05-14T04:00:23.464Z,100960.66
2023-05-14T04:03:28.687Z,100954.03
2023-05-14T04:06:33.097Z,100955.47
2023-05-14T04:09:37.109Z,100954.66
2023-05-14T04:12:38.801Z,100959.13
2023-05-14T04:15:41.157Z,100959.03
2023-05-14T04:18:43.234Z,100963.16
2023-05-14T04:21:45.289Z,100966.25
2023-05-14T04:24:47.279Z,100955.06
2023-05-14T04:27:49.290Z,100952.97
2023-05-14T04:30:51.886Z,100953.56
2023-05-14T04:33:53.677Z,100944.91
2023-05-14T04:36:56.045Z,100944.47
2023-05-14T04:39:58.055Z,100950.25
2023-05-14T04:43:00.228Z,100946.41
2023-05-14T04:46:02.201Z,100951.88
2023-05-14T04:49:04.423Z,100955.03
2023-05-14T04:52:06.833Z,100951.41
2023-05-14T04:55:09.361Z,100953.91
2023-05-14T04:58:11.187Z,100957.06
2023-05-14T05:01:13.221Z,100966.19
2023-05-14T05:04:15.291Z,100966.78
2023-05-14T05:07:18.421Z,100970.81
2023-05-14T05:10:19.999Z,100967.16
2023-05-14T05:13:21.888Z,100964.13
2023-05-14T05:16:23.587Z,100962.97
2023-05-14T05:19:35.846Z,100961.69
2023-05-14T05:22:44.440Z,100959.72
2023-05-14T05:25:46.419Z,100963.59
2023-05-14T05:28:48.607Z,100969.16
2023-05-14T05:31:50.444Z,100968.69
2023-05-14T05:34:52.489Z,100967.31
2023-05-14T05:37:54.230Z,100963.06
2023-05-14T05:40:56.186Z,100964.38
2023-05-14T05:43:58.160Z,100964.75
2023-05-14T05:47:00.345Z,100970.41
2023-05-14T05:50:02.147Z,100970.06
2023-05-14T05:53:04.211Z,100965.81
2023-05-14T05:56:06.802Z,100960.28
2023-05-14T05:59:08.698Z,100971.13
2023-05-14T06:02:10.927Z,100961.22
2023-05-14T06:05:13.131Z,100960.81
2023-05-14T06:08:15.013Z,100963.84
2023-05-14T06:11:18.121Z,100957.34
2023-05-14T06:14:19.888Z,100960.31
2023-05-14T06:17:21.938Z,100958.19
2023-05-14T06:20:23.985Z,100962.75
2023-05-14T06:23:26.794Z,100957.22
2023-05-14T06:26:28.804Z,100959.78
2023-05-14T06:29:30.614Z,100964.34
2023-05-14T06:32:32.867Z,100963.03
2023-05-14T06:35:34.696Z,100955.47
2023-05-14T06:38:36.812Z,100966.75
2023-05-14T06:41:38.554Z,100960.38
2023-05-14T06:44:41.209Z,100956.31
2023-05-14T06:47:43.392Z,100954.16
2023-05-14T06:50:46.135Z,100949.88
2023-05-14T06:53:48.934Z,100957.72
2023-05-14T06:56:50.868Z,100956.84
2023-05-14T06:59:53.030Z,100957.75
2023-05-14T07:02:54.921Z,100953.56
2023-05-14T07:05:57.160Z,100956.47
2023-05-14T07:08:59.881Z,100960.91
2023-05-14T07:12:01.860Z,100957.56
2023-05-14T07:15:04.270Z,100949.38
2023-05-14T07:18:06.425Z,100955.44
2023-05-14T07:21:08.471Z,100945.34
2023-05-14T07:24:10.291Z,100948.34
2023-05-14T07:27:12.570Z,100946.88
2023-05-14T07:30:15.765Z,100942.22
2023-05-14T07:33:18.306Z,100941.84
2023-05-14T07:36:20.274Z,100948.44
2023-05-14T07:39:23.221Z,100943.91
2023-05-14T07:42:35.399Z,100933.91
2023-05-14T07:45:41.643Z,100934.63
2023-05-14T07:48:44.110Z,100936.31
2023-05-14T07:51:45.862Z,100938.50
2023-05-14T07:54:49.415Z,100936.56
2023-05-14T07:57:52.530Z,100936.00
2023-05-14T08:00:54.384Z,100937.34
2023-05-14T08:03:56.426Z,100933.59
2023-05-14T08:06:58.431Z,100930.22
2023-05-14T08:10:00.605Z,100930.56
2023-05-14T08:13:03.268Z,100918.31
2023-05-14T08:16:05.599Z,100918.25
2023-05-14T08:19:07.723Z,100916.81
2023-05-14T08:22:09.757Z,100919.81
2023-05-14T08:25:12.098Z,100918.13
2023-05-14T08:28:14.100Z,100918.81
2023-05-14T08:31:16.191Z,100909.84
2023-05-14T08:34:18.485Z,100910.53
2023-05-14T08:37:20.674Z,100910.78
2023-05-14T08:40:23.384Z,100906.28
2023-05-14T08:43:46.215Z,100901.34
2023-05-14T08:46:50.373Z,100894.22
2023-05-14T08:50:06.419Z,100894.19
2023-05-14T08:53:08.547Z,100883.69
2023-05-14T08:56:10.715Z,100884.72
2023-05-14T08:59:13.295Z,100891.53
2023-05-14T09:02:17.585Z,100880.28
2023-05-14T09:05:21.181Z,100882.88
2023-05-14T09:08:23.512Z,100887.16
2023-05-14T09:11:25.508Z,100887.34
2023-05-14T09:14:27.531Z,100885.06
2023-05-14T09:17:29.911Z,100885.56
2023-05-14T09:20:32.809Z,100881.63
2023-05-14T09:23:35.165Z,100885.38
2023-05-14T09:26:37.282Z,100878.63
2023-05-14T09:29:39.470Z,100877.91
2023-05-14T09:32:44.672Z,100872.03
2023-05-14T09:35:47.799Z,100870.72
2023-05-14T09:38:49.847Z,100865.25
2023-05-14T09:41:52.201Z,100863.25
2023-05-14T09:44:54.107Z,100849.16
2023-05-14T09:47:56.638Z,100856.50
2023-05-14T09:50:58.753Z,100853.06
2023-05-14T09:54:01.108Z,100847.31
2023-05-14T09:57:03.357Z,100843.97
2023-05-14T10:00:05.840Z,100841.84
2023-05-14T10:03:08.497Z,100837.41
2023-05-14T10:06:13.305Z,100840.47
2023-05-14T10:09:19.197Z,100835.06
2023-05-14T10:12:23.569Z,100832.31
2023-05-14T10:15:37.300Z,100832.63
2023-05-14T10:18:48.530Z,100822.63
2023-05-14T10:21:57.064Z,100825.63
2023-05-14T10:24:59.367Z,100817.75
2023-05-14T10:28:01.887Z,100826.56
2023-05-14T10:31:04.103Z,100822.16
2023-05-14T10:34:42.717Z,100827.59
2023-05-14T10:37:46.287Z,100814.59
2023-05-14T10:40:48.384Z,100816.63
2023-05-14T10:43:50.778Z,100812.84
2023-05-14T10:46:53.422Z,100810.44
2023-05-14T10:50:05.413Z,100804.44
2023-05-14T10:53:13.012Z,100792.91
2023-05-14T10:56:14.844Z,100800.84
2023-05-14T10:59:27.547Z,100798.00
2023-05-14T11:02:36.941Z,100795.56
2023-05-14T11:05:41.767Z,100793.25
2023-05-14T11:08:44.882Z,100796.50
2023-05-14T11:11:48.156Z,100790.34
2023-05-14T11:14:50.869Z,100792.09
2023-05-14T11:17:54.011Z,100791.97
2023-05-14T11:21:03.113Z,100782.72
2023-05-14T11:24:05.700Z,100772.84
2023-05-14T11:27:09.417Z,100774.16
2023-05-14T11:30:22.029Z,100776.78
2023-05-14T11:33:23.996Z,100766.81
2023-05-14T11:36:26.052Z,100768.22
2023-05-14T11:39:28.229Z,100759.31
2023-05-14T11:42:30.081Z,100761.00
2023-05-14T11:45:33.426Z,100757.41
2023-05-14T11:48:35.574Z,100750.16
2023-05-14T11:51:37.515Z,100741.22
2023-05-14T11:54:39.365Z,100749.03
2023-05-14T11:57:41.728Z,100745.41
2023-05-14T12:00:45.730Z,100730.75
2023-05-14T12:03:47.455Z,100738.41
2023-05-14T12:06:50.177Z,100738.84
2023-05-14T12:09:52.419Z,100726.69
2023-05-14T12:12:54.476Z,100727.94
2023-05-14T12:15:58.831Z,100721.66
2023-05-14T12:19:01.914Z,100721.19
2023-05-14T12:22:03.846Z,100723.19
2023-05-14T12:25:12.596Z,100717.25
2023-05-14T12:28:20.888Z,100714.25
2023-05-14T12:31:38.648Z,100709.25
2023-05-14T12:34:40.433Z,100701.41
2023-05-14T12:37:43.016Z,100693.97
2023-05-14T12:40:45.268Z,100686.75
2023-05-14T12:43:49.790Z,100685.19
2023-05-14T12:46:51.993Z,100693.56
2023-05-14T12:49:54.347Z,100678.41
2023-05-14T12:52:56.382Z,100674.38
2023-05-14T12:55:58.647Z,100676.22
2023-05-14T12:59:00.575Z,100675.59
2023-05-14T13:02:02.656Z,100670.06
2023-05-14T13:05:05.177Z,100665.16
2023-05-14T13:08:07.434Z,100661.81
2023-05-14T13:11:16.887Z,100656.09
2023-05-14T13:14:20.153Z,100656.13
2023-05-14T13:17:23.423Z,100649.28
2023-05-14T13:20:27.298Z,100638.94
2023-05-14T13:23:29.384Z,100643.50
2023-05-14T13:26:31.669Z,100638.28
2023-05-14T13:29:33.759Z,100633.69
2023-05-14T13:32:36.004Z,100630.56
2023-05-14T13:35:38.467Z,100628.16
2023-05-14T13:38:40.550Z,100632.97
2023-05-14T13:41:43.006Z,100625.34
2023-05-14T13:44:45.217Z,100623.94
2023-05-14T13:47:51.614Z,100618.84
2023-05-14T13:50:56.846Z,100616.56
2023-05-14T13:53:59.208Z,100615.69
2023-05-14T13:57:01.430Z,100613.25
2023-05-14T14:00:05.067Z,100601.16
2023-05-14T14:03:08.569Z,100595.91
2023-05-14T14:06:10.978Z,100584.78
2023-05-14T14:09:13.991Z,100584.19
2023-05-14T14:12:16.141Z,100579.19
2023-05-14T14:15:21.324Z,100587.03
2023-05-14T14:18:23.373Z,100587.22
2023-05-14T14:21:25.798Z,100583.94
2023-05-14T14:24:31.557Z,100585.84
2023-05-14T14:27:36.452Z,100588.41
2023-05-14T14:30:41.772Z,100588.81
2023-05-14T14:33:47.284Z,100589.09
2023-05-14T14:36:49.702Z,100596.31
2023-05-14T14:39:51.856Z,100593.75
2023-05-14T14:42:53.907Z,100584.22
2023-05-14T14:45:55.867Z,100596.91
2023-05-14T14:48:58.027Z,100593.56
2023-05-14T14:52:00.468Z,100589.44
2023-05-14T14:55:04.023Z,100577.97
2023-05-14T14:58:06.249Z,100586.84
2023-05-14T15:01:08.431Z,100590.03
2023-05-14T15:04:10.693Z,100584.88
2023-05-14T15:07:13.060Z,100580.19
2023-05-14T15:10:15.626Z,100582.00
2023-05-14T15:13:17.671Z,100579.00
2023-05-14T15:16:19.802Z,100574.75
2023-05-14T15:19:22.272Z,100567.47
2023-05-14T15:22:24.524Z,100569.19
2023-05-14T15:25:27.016Z,100570.50
2023-05-14T15:28:29.105Z,100570.97
2023-05-14T15:31:32.337Z,100568.97
2023-05-14T15:34:34.451Z,100569.38
2023-05-14T15:37:44.771Z,100558.84
2023-05-14T15:40:47.254Z,100566.75
2023-05-14T15:43:48.955Z,100563.44
2023-05-14T15:46:53.934Z,100561.44
2023-05-14T15:49:56.504Z,100556.13
2023-05-14T15:53:00.263Z,100556.38
2023-05-14T15:56:03.455Z,100548.25
2023-05-14T15:59:08.631Z,100543.38
2023-05-14T16:02:14.713Z,100542.88
2023-05-14T16:05:16.838Z,100541.72
2023-05-14T16:08:18.949Z,100539.56
2023-05-14T16:11:21.500Z,100539.09
2023-05-14T16:14:24.055Z,100535.75
2023-05-14T16:17:33.049Z,100543.22
2023-05-14T16:20:35.551Z,100537.78
2023-05-14T16:23:37.769Z,100530.66
2023-05-14T16:26:40.571Z,100536.34
2023-05-14T16:29:42.740Z,100528.47
2023-05-14T16:32:51.543Z,100531.72
2023-05-14T16:35:55.378Z,100530.47
2023-05-14T16:39:07.485Z,100520.03
2023-05-14T16:42:10.810Z,100513.78
2023-05-14T16:45:13.418Z,100512.69
2023-05-14T16:48:16.525Z,100516.31
2023-05-14T16:51:18.941Z,100504.72
2023-05-14T16:54:21.887Z,100511.38
2023-05-14T16:57:23.868Z,100506.13
2023-05-14T17:00:28.493Z,100506.53
2023-05-14T17:03:30.781Z,100511.75
2023-05-14T17:06:33.198Z,100502.19
2023-05-14T17:09:35.860Z,100512.09
2023-05-14T17:12:40.273Z,100507.56
2023-05-14T17:15:42.749Z,100501.66
2023-05-14T17:18:45.881Z,100502.97
2023-05-14T17:21:50.475Z,100496.84
2023-05-14T17:24:52.487Z,100496.72
2023-05-14T17:28:00.853Z,100497.25
2023-05-14T17:31:02.623Z,100494.81
2023-05-14T17:34:04.732Z,100489.94
2023-05-14T17:37:07.077Z,100502.09
2023-05-14T17:40:12.305Z,100494.63
2023-05-14T17:43:16.905Z,100495.78
2023-05-14T17:46:19.078Z,100489.84
2023-05-14T17:49:21.552Z,100498.56
2023-05-14T17:52:23.844Z,100500.28
2023-05-14T17:55:26.827Z,100496.97
2023-05-14T17:58:28.933Z,100488.91
2023-05-14T18:01:31.393Z,100500.25
2023-05-14T18:04:33.371Z,100494.75
2023-05-14T18:07:39.598Z,100494.84
2023-05-14T18:10:41.732Z,100498.06
2023-05-14T18:13:43.712Z,100491.28
2023-05-14T18:16:47.768Z,100493.94
2023-05-14T18:19:49.711Z,100500.81
2023-05-14T18:22:52.639Z,100501.72
2023-05-14T18:25:54.585Z,100502.13
2023-05-14T18:28:58.046Z,100502.91
2023-05-14T18:32:01.115Z,100499.75
2023-05-14T18:35:07.893Z,100500.00
2023-05-14T18:38:11.994Z,100502.22
2023-05-14T18:41:13.897Z,100511.94
2023-05-14T18:44:16.239Z,100503.44
2023-05-14T18:47:18.829Z,100502.16
2023-05-14T18:50:20.747Z,100504.84
2023-05-14T18:53:22.807Z,100498.63
2023-05-14T18:56:25.534Z,100515.19
2023-05-14T18:59:27.635Z,100517.31
2023-05-14T19:02:33.388Z,100515.00
2023-05-14T19:05:35.970Z,100513.72
2023-05-14T19:08:38.274Z,100511.25
2023-05-14T19:11:40.401Z,100507.94
2023-05-14T19:14:42.273Z,100511.03
2023-05-14T19:17:46.920Z,100511.31
2023-05-14T19:20:50.684Z,100506.06
2023-05-14T19:23:52.864Z,100509.91
2023-05-14T19:26:54.887Z,100512.34
2023-05-14T19:29:57.691Z,100517.69
2023-05-14T19:33:00.058Z,100509.81
2023-05-14T19:36:02.254Z,100525.13
2023-05-14T19:39:04.845Z,100518.75
2023-05-14T19:42:07.425Z,100518.81
2023-05-14T19:45:10.304Z,100512.75
2023-05-14T19:48:13.703Z,100513.59
2023-05-14T19:51:16.700Z,100511.63
2023-05-14T19:54:18.696Z,100511.13
2023-05-14T19:57:20.744Z,100510.16
2023-05-14T20:00:22.945Z,100510.81
2023-05-14T20:03:27.826Z,100507.53
2023-05-14T20:06:29.884Z,100504.56
2023-05-14T20:09:34.479Z,100507.31
2023-05-14T20:12:36.327Z,100500.63
2023-05-14T20:15:41.056Z,100499.81
2023-05-14T20:18:44.106Z,100502.56
2023-05-14T20:21:46.005Z,100499.94
2023-05-14T20:24:47.873Z,100499.00
2023-05-14T20:27:50.873Z,100495.81
2023-05-14T20:30:59.059Z,100508.38
2023-05-14T20:34:00.984Z,100499.22
2023-05-14T20:37:05.366Z,100494.41
2023-05-14T20:40:10.589Z,100494.16
2023-05-14T20:43:15.054Z,100499.59
2023-05-14T20:46:17.355Z,100489.94
2023-05-14T20:49:19.294Z,100495.78
2023-05-14T20:52:24.382Z,100488.75
2023-05-14T20:55:26.832Z,100482.88
2023-05-14T20:58:29.949Z,100484.81
2023-05-14T21:01:33.004Z,100490.47
2023-05-14T21:04:35.233Z,100486.53
2023-05-14T21:07:39.568Z,100475.91
2023-05-14T21:10:41.548Z,100481.72
2023-05-14T21:13:44.645Z,100477.47
2023-05-14T21:16:46.996Z,100479.56
2023-05-14T21:19:49.486Z,100478.16
2023-05-14T21:22:51.892Z,100473.34
2023-05-14T21:25:57.035Z,100470.56
2023-05-14T21:28:59.887Z,100462.28
2023-05-14T21:32:02.199Z,100461.38
2023-05-14T21:35:05.428Z,100457.69
2023-05-14T21:38:08.841Z,100454.31
2023-05-14T21:41:11.315Z,100453.81
2023-05-14T21:44:16.306Z,100454.63
2023-05-14T21:47:18.578Z,100456.25
2023-05-14T21:50:22.764Z,100460.50
2023-05-14T21:53:24.528Z,100444.66
2023-05-14T21:56:29.477Z,100447.56
2023-05-14T21:59:31.317Z,100437.63
2023-05-14T22:02:33.397Z,100441.25
2023-05-14T22:05:36.486Z,100438.28
2023-05-14T22:08:38.535Z,100440.44
2023-05-14T22:11:40.455Z,100443.31
2023-05-14T22:14:42.498Z,100450.56
2023-05-14T22:17:44.467Z,100437.44
2023-05-14T22:20:46.507Z,100431.44
2023-05-14T22:23:52.715Z,100433.50
2023-05-14T22:26:56.848Z,100436.78
2023-05-14T22:29:58.897Z,100430.09
2023-05-14T22:33:03.491Z,100427.22
2023-05-14T22:36:07.509Z,100424.75
2023-05-14T22:39:11.339Z,100423.78
2023-05-14T22:42:14.879Z,100421.47
2023-05-14T22:45:17.901Z,100421.59
2023-05-14T22:48:20.410Z,100417.09
2023-05-14T22:51:22.471Z,100407.81
2023-05-14T22:54:24.486Z,100413.00
2023-05-14T22:57:26.664Z,100413.00
2023-05-14T23:00:28.461Z,100414.50
2023-05-14T23:03:30.788Z,100409.88
2023-05-14T23:06:33.009Z,100404.28
2023-05-14T23:09:34.841Z,100405.22
2023-05-14T23:12:36.955Z,100399.75
2023-05-14T23:15:38.844Z,100399.91
2023-05-14T23:18:40.790Z,100406.31
2023-05-14T23:21:42.880Z,100400.59
2023-05-14T23:24:45.272Z,100400.03
2023-05-14T23:27:48.067Z,100393.22
2023-05-14T23:30:52.984Z,100389.13
2023-05-14T23:34:02.087Z,100385.53
2023-05-14T23:37:04.579Z,100372.97
2023-05-14T23:40:07.480Z,100371.63
2023-05-14T23:43:09.298Z,100369.56
2023-05-14T23:46:11.881Z,100364.25
2023-05-14T23:49:13.840Z,100355.94
2023-05-14T23:52:15.903Z,100358.09
2023-05-14T23:55:18.080Z,100351.16
2023-05-14T23:58:19.761Z,100356.47
